Time;durP1;ratioP1;P1;durP2;ratioP2;P2;SDS_P1;SDS_P2;PMS_P1;PMS_P2;Temp;Humidity;BMP_temperature;BMP_pressure;BME280_temperature;BME280_humidity;BME280_pressure;Samples;Min_cycle;Max_cycle;Signal;HPM_P1;HPM_P2
2022/08/14 00:00:23;;;;;;;4.75;1.30;;;22.80;78.70;;;;;;4977594;28;20031;-67
2022/08/14 00:02:48;;;;;;;3.08;1.65;;;22.90;77.80;;;;;;4974907;28;20066;-70
2022/08/14 00:05:18;;;;;;;3.20;1.27;;;22.90;77.60;;;;;;4976509;28;20463;-69
2022/08/14 00:07:44;;;;;;;3.88;1.00;;;23.10;77.10;;;;;;4975047;28;20866;-67
2022/08/14 00:10:13;;;;;;;2.67;1.67;;;23.20;76.90;;;;;;4975898;28;20034;-70
2022/08/14 00:12:47;;;;;;;2.45;1.33;;;23.20;76.70;;;;;;4976177;28;20570;-70
2022/08/14 00:15:25;;;;;;;2.80;1.42;;;23.30;76.60;;;;;;4975952;28;20038;-71
2022/08/14 00:17:52;;;;;;;8.23;1.77;;;23.30;76.70;;;;;;4981378;28;20565;-70
2022/08/14 00:20:20;;;;;;;2.22;1.50;;;23.30;76.70;;;;;;5006233;28;20035;-70
2022/08/14 00:22:46;;;;;;;2.22;1.40;;;23.30;77.60;;;;;;4973415;28;20190;-70
2022/08/14 00:25:12;;;;;;;4.65;1.48;;;23.30;77.30;;;;;;4978887;28;20368;-70
2022/08/14 00:27:38;;;;;;;2.15;1.50;;;23.30;77.90;;;;;;4976848;28;20498;-70
2022/08/14 00:30:09;;;;;;;2.17;1.50;;;23.20;78.30;;;;;;4976782;28;20066;-68
2022/08/14 00:32:36;;;;;;;3.00;1.50;;;23.10;78.20;;;;;;4971346;28;20126;-69
2022/08/14 00:35:04;;;;;;;2.50;1.63;;;23.10;78.10;;;;;;4978094;28;20806;-69
2022/08/14 00:37:31;;;;;;;5.78;1.65;;;23.00;77.90;;;;;;4971884;28;20042;-68
2022/08/14 00:39:58;;;;;;;3.17;1.80;;;23.00;77.90;;;;;;4977387;28;20121;-69
2022/08/14 00:42:23;;;;;;;3.67;1.80;;;23.10;78.00;;;;;;4977330;28;20085;-68
2022/08/14 00:44:50;;;;;;;4.28;1.52;;;23.00;78.00;;;;;;4975055;28;20046;-70
2022/08/14 00:47:17;;;;;;;3.65;1.42;;;23.00;78.20;;;;;;4976329;28;20058;-69
2022/08/14 00:49:44;;;;;;;3.33;1.40;;;23.00;78.30;;;;;;4973962;28;20136;-69
2022/08/14 00:52:14;;;;;;;3.95;1.50;;;22.90;79.10;;;;;;4974344;28;20031;-68
2022/08/14 00:54:40;;;;;;;;;;;22.90;78.90;;;;;;4975345;28;20438;-70
2022/08/14 00:57:06;;;;;;;2.72;1.48;;;23.00;78.70;;;;;;4975612;28;19937;-70
2022/08/14 00:59:32;;;;;;;2.38;1.70;;;23.00;78.60;;;;;;4976994;28;20085;-69
2022/08/14 01:01:59;;;;;;;4.85;1.67;;;23.00;78.80;;;;;;4974111;28;20051;-69
2022/08/14 01:04:27;;;;;;;2.55;1.55;;;23.00;78.70;;;;;;4976459;28;20131;-71
2022/08/14 01:06:53;;;;;;;2.63;1.90;;;23.00;79.00;;;;;;4976970;28;20033;-69
2022/08/14 01:09:21;;;;;;;4.93;2.00;;;23.10;79.10;;;;;;4973438;28;20061;-70
2022/08/14 01:11:51;;;;;;;3.70;1.83;;;23.10;79.20;;;;;;4976184;28;20046;-69
2022/08/14 01:14:18;;;;;;;5.80;1.73;;;23.10;79.10;;;;;;4974445;28;20505;-70
2022/08/14 01:16:44;;;;;;;2.95;1.90;;;23.10;79.20;;;;;;4973893;28;20270;-70
2022/08/14 01:21:54;;;;;;;2.78;1.73;;;23.10;79.30;;;;;;4976587;28;20049;-70
2022/08/14 01:24:21;;;;;;;9.30;1.90;;;23.10;79.40;;;;;;4973931;28;20431;-69
2022/08/14 01:26:47;;;;;;;4.57;1.65;;;23.10;79.50;;;;;;4980353;28;20093;-69
2022/08/14 01:29:13;;;;;;;3.35;1.60;;;23.00;79.60;;;;;;4975803;28;20558;-70
2022/08/14 01:34:11;;;;;;;6.90;1.80;;;23.00;79.80;;;;;;4974869;28;20046;-71
2022/08/14 01:36:37;;;;;;;3.83;1.73;;;23.00;80.00;;;;;;4974076;28;20049;-72
2022/08/14 01:39:29;;;;;;;2.40;1.65;;;23.10;80.10;;;;;;4977898;28;20035;-71
2022/08/14 01:41:57;;;;;;;2.65;1.67;;;23.00;80.10;;;;;;4979353;28;20177;-72
2022/08/14 01:44:28;;;;;;;5.38;1.70;;;23.00;80.30;;;;;;4980433;28;20037;-69
2022/08/14 01:46:57;;;;;;;3.55;1.88;;;22.90;80.50;;;;;;4980911;28;20050;-71
2022/08/14 01:49:24;;;;;;;3.83;1.60;;;22.90;80.70;;;;;;4979701;28;20127;-69
2022/08/14 01:51:55;;;;;;;3.10;1.65;;;22.90;80.70;;;;;;4984447;28;20042;-69
2022/08/14 01:54:22;;;;;;;3.47;1.95;;;22.90;80.80;;;;;;4988223;28;20672;-70
2022/08/14 01:56:55;;;;;;;4.30;2.05;;;22.90;81.10;;;;;;4976563;28;20125;-70
2022/08/14 01:59:25;;;;;;;4.45;1.73;;;22.90;81.10;;;;;;4979188;28;20084;-69
2022/08/14 02:01:52;;;;;;;;;;;22.80;81.30;;;;;;4978093;28;20042;-69
2022/08/14 02:04:19;;;;;;;4.43;1.70;;;22.80;81.60;;;;;;4979711;28;19971;-70
2022/08/14 02:06:46;;;;;;;3.50;1.88;;;22.70;81.80;;;;;;4977422;28;20515;-69
2022/08/14 02:09:12;;;;;;;3.70;2.00;;;22.70;81.90;;;;;;4980018;28;20034;-70
2022/08/14 02:11:38;;;;;;;4.20;1.90;;;22.60;82.20;;;;;;4978450;28;20045;-70
2022/08/14 02:14:07;;;;;;;4.38;2.30;;;22.60;82.30;;;;;;4977936;28;20514;-71
2022/08/14 02:16:39;;;;;;;6.77;2.07;;;22.60;82.70;;;;;;4977803;28;20061;-70
2022/08/14 02:19:08;;;;;;;4.40;2.17;;;22.60;82.60;;;;;;4979254;28;20388;-71
2022/08/14 02:21:35;;;;;;;5.23;1.90;;;22.60;82.90;;;;;;4977043;28;20042;-69
2022/08/14 02:24:03;;;;;;;4.15;1.85;;;22.50;82.70;;;;;;4977595;28;20065;-70
2022/08/14 02:26:34;;;;;;;5.13;2.25;;;22.50;83.00;;;;;;5013817;28;20042;-70
2022/08/14 02:29:07;;;;;;;6.30;1.92;;;22.50;83.30;;;;;;4978316;28;20035;-70
2022/08/14 02:31:36;;;;;;;5.53;2.00;;;22.40;83.30;;;;;;4978842;28;20038;-69
2022/08/14 02:34:33;;;;;;;5.95;1.92;;;22.40;83.50;;;;;;4974723;28;20403;-70
2022/08/14 02:37:03;;;;;;;3.25;2.13;;;22.40;83.60;;;;;;4984083;28;20058;-70
2022/08/14 02:39:29;;;;;;;;;;;22.40;83.70;;;;;;4975729;28;20396;-70
2022/08/14 02:41:56;;;;;;;4.82;2.20;;;22.40;83.80;;;;;;4986768;28;19918;-71
2022/08/14 02:44:21;;;;;;;3.90;1.98;;;22.30;83.80;;;;;;4974589;28;20039;-71
2022/08/14 02:46:48;;;;;;;5.95;2.28;;;22.20;84.00;;;;;;4978647;28;20443;-71
2022/08/14 02:49:14;;;;;;;4.97;2.30;;;22.20;84.20;;;;;;4975045;28;20053;-71
2022/08/14 02:51:40;;;;;;;10.60;1.98;;;22.20;84.50;;;;;;4981017;28;20438;-70
2022/08/14 02:54:08;;;;;;;6.65;2.13;;;22.10;84.50;;;;;;4986581;28;20490;-71
2022/08/14 02:56:37;;;;;;;7.00;2.60;;;22.00;84.70;;;;;;5007947;28;20277;-70
2022/08/14 02:59:05;;;;;;;3.35;2.00;;;22.00;85.00;;;;;;4977018;28;20523;-69
2022/08/14 03:01:32;;;;;;;4.85;2.33;;;22.00;85.10;;;;;;4977314;28;20042;-72
2022/08/14 03:03:58;;;;;;;5.60;2.25;;;22.00;85.10;;;;;;4973947;28;20762;-69
2022/08/14 03:06:24;;;;;;;3.78;1.98;;;21.90;85.30;;;;;;4979461;28;20031;-71
2022/08/14 03:08:50;;;;;;;4.88;2.30;;;21.80;85.70;;;;;;4976226;28;20042;-71
2022/08/14 03:11:15;;;;;;;5.85;2.65;;;21.90;85.70;;;;;;4978175;28;20057;-71
2022/08/14 03:13:50;;;;;;;3.97;2.65;;;21.80;85.70;;;;;;4975082;28;20057;-71
2022/08/14 03:16:18;;;;;;;4.13;2.35;;;21.80;85.90;;;;;;4976635;28;20026;-71
2022/08/14 03:18:45;;;;;;;3.85;2.08;;;21.80;86.10;;;;;;4974088;28;20031;-69
2022/08/14 03:21:17;;;;;;;7.10;2.17;;;21.70;86.30;;;;;;4976795;28;20542;-71
2022/08/14 03:23:44;;;;;;;4.50;2.13;;;21.70;86.50;;;;;;4973141;28;20474;-71
2022/08/14 03:26:13;;;;;;;5.40;2.30;;;21.70;86.60;;;;;;4981094;28;20069;-71
2022/08/14 03:28:41;;;;;;;3.83;2.17;;;21.60;86.70;;;;;;4975149;28;20037;-71
2022/08/14 03:31:08;;;;;;;4.30;2.25;;;21.60;86.90;;;;;;4940367;28;1060981;-71
2022/08/14 03:33:39;;;;;;;2.83;1.88;;;21.60;87.00;;;;;;4976334;28;20039;-70
2022/08/14 03:36:13;;;;;;;4.25;2.53;;;21.60;87.10;;;;;;4978083;28;20037;-71
2022/08/14 03:38:41;;;;;;;5.35;2.28;;;21.60;87.30;;;;;;4977224;28;20027;-70
2022/08/14 03:41:21;;;;;;;4.97;2.30;;;21.60;87.30;;;;;;4982875;28;20022;-70
2022/08/14 03:44:06;;;;;;;7.85;2.42;;;21.60;87.30;;;;;;4976433;28;20458;-70
2022/08/14 03:46:36;;;;;;;4.32;2.30;;;21.60;87.50;;;;;;4978975;28;20121;-71
2022/08/14 03:49:04;;;;;;;4.05;2.17;;;21.50;87.60;;;;;;4976970;28;20407;-71
2022/08/14 03:51:30;;;;;;;5.25;2.35;;;21.50;87.90;;;;;;4985097;28;20026;-70
2022/08/14 03:54:00;;;;;;;4.30;2.53;;;21.50;88.00;;;;;;5008032;28;20034;-71
2022/08/14 03:56:26;;;;;;;;;;;21.50;88.00;;;;;;4976637;28;20042;-69
2022/08/14 03:58:55;;;;;;;3.33;2.13;;;21.40;88.10;;;;;;4976727;28;19917;-70
2022/08/14 04:01:23;;;;;;;4.20;2.40;;;21.40;88.30;;;;;;4974201;28;20045;-70
2022/08/14 04:03:51;;;;;;;5.25;2.97;;;21.40;88.50;;;;;;4977400;28;20050;-70
2022/08/14 04:06:19;;;;;;;4.28;2.55;;;21.30;88.40;;;;;;4986127;28;20045;-69
2022/08/14 04:08:45;;;;;;;4.55;2.40;;;21.30;88.80;;;;;;4978245;28;20057;-71
2022/08/14 04:11:12;;;;;;;4.85;2.47;;;21.30;88.90;;;;;;4975702;28;20038;-71
2022/08/14 04:13:40;;;;;;;5.38;2.38;;;21.30;88.80;;;;;;4975782;28;20696;-69
2022/08/14 04:16:12;;;;;;;4.78;2.45;;;21.30;88.80;;;;;;4976091;28;20042;-70
2022/08/14 04:18:44;;;;;;;5.82;2.40;;;21.30;88.90;;;;;;4976878;28;20105;-70
2022/08/14 04:21:10;;;;;;;4.85;2.33;;;21.30;89.00;;;;;;4975568;28;20034;-70
2022/08/14 04:23:37;;;;;;;4.43;2.28;;;21.20;89.00;;;;;;4975536;28;20130;-70
2022/08/14 04:26:07;;;;;;;6.18;2.17;;;21.20;89.30;;;;;;5010141;28;20122;-71
2022/08/14 04:28:35;;;;;;;4.78;2.38;;;21.30;89.50;;;;;;5004929;28;20088;-71
2022/08/14 04:31:01;;;;;;;3.10;2.10;;;21.20;89.50;;;;;;4976642;28;20753;-71
2022/08/14 04:33:27;;;;;;;6.15;2.60;;;21.20;89.60;;;;;;4977715;28;20038;-71
2022/08/14 04:35:54;;;;;;;4.10;2.78;;;21.20;89.70;;;;;;4986404;28;20138;-72
2022/08/14 04:43:49;;;;;;;6.47;3.10;;;21.20;90.00;;;;;;4976857;28;20506;-71
2022/08/14 04:46:19;;;;;;;6.60;2.83;;;21.20;90.00;;;;;;4974508;28;20074;-72
2022/08/14 04:48:44;;;;;;;3.53;2.40;;;21.10;90.00;;;;;;4976238;28;20109;-72
2022/08/14 04:51:13;;;;;;;4.80;2.50;;;21.10;90.10;;;;;;4979339;28;20082;-71
2022/08/14 04:53:42;;;;;;;4.60;2.22;;;21.10;90.20;;;;;;4974300;28;20117;-71
2022/08/14 04:56:13;;;;;;;3.88;2.25;;;21.10;90.20;;;;;;4975264;28;20046;-68
2022/08/14 04:58:41;;;;;;;4.60;2.33;;;21.10;90.20;;;;;;4977157;28;20121;-70
2022/08/14 05:01:09;;;;;;;3.85;2.22;;;21.00;90.30;;;;;;4975481;28;20491;-68
2022/08/14 05:03:37;;;;;;;3.90;2.70;;;21.00;90.30;;;;;;4975346;28;20133;-71
2022/08/14 05:06:05;;;;;;;8.02;2.60;;;21.00;90.30;;;;;;4975471;28;20042;-70
2022/08/14 05:08:31;;;;;;;6.15;2.78;;;21.10;90.30;;;;;;4985636;28;20030;-70
2022/08/14 05:11:00;;;;;;;6.57;3.00;;;21.10;90.60;;;;;;4975632;28;20030;-71
2022/08/14 05:13:27;;;;;;;4.28;2.45;;;21.10;90.30;;;;;;4974958;28;20027;-72
2022/08/14 05:15:56;;;;;;;4.82;2.90;;;21.00;90.30;;;;;;4973937;28;20038;-72
2022/08/14 05:18:23;;;;;;;3.58;2.10;;;21.10;90.30;;;;;;4975649;28;20035;-72
2022/08/14 05:20:53;;;;;;;8.32;2.38;;;21.10;90.30;;;;;;4975215;28;20035;-71
2022/08/14 05:23:24;;;;;;;6.05;2.83;;;21.10;90.40;;;;;;4975753;28;20100;-70
2022/08/14 05:26:02;;;;;;;5.90;2.58;;;21.10;90.40;;;;;;4982855;28;20039;-72
2022/08/14 05:28:30;;;;;;;6.50;2.88;;;21.10;90.40;;;;;;4976189;28;20026;-70
2022/08/14 05:30:59;;;;;;;3.97;2.33;;;21.10;90.40;;;;;;4985197;28;20031;-68
2022/08/14 05:33:29;;;;;;;5.50;3.08;;;21.10;90.50;;;;;;4974636;28;20133;-70
2022/08/14 05:36:00;;;;;;;5.20;2.85;;;21.10;90.50;;;;;;4973863;28;20055;-70
2022/08/14 05:38:32;;;;;;;6.53;2.40;;;21.10;90.50;;;;;;4975367;28;20038;-70
2022/08/14 05:41:07;;;;;;;4.38;2.60;;;21.10;90.60;;;;;;4976415;28;20031;-70
2022/08/14 05:43:33;;;;;;;7.57;2.78;;;21.20;90.60;;;;;;4978662;28;20042;-71
2022/08/14 05:46:00;;;;;;;3.33;2.33;;;21.20;90.50;;;;;;4976138;28;20372;-70
2022/08/14 05:48:26;;;;;;;8.20;2.67;;;21.30;90.30;;;;;;4975552;28;20061;-71
2022/08/14 05:50:55;;;;;;;4.40;2.90;;;21.30;90.50;;;;;;4978858;28;20387;-69
2022/08/14 05:53:23;;;;;;;6.63;2.88;;;21.40;90.40;;;;;;4975395;28;20038;-70
2022/08/14 05:55:49;;;;;;;7.43;3.13;;;21.40;90.40;;;;;;4974598;28;20031;-69
2022/08/14 05:58:15;;;;;;;4.93;2.45;;;21.40;90.40;;;;;;4977368;28;20053;-71
2022/08/14 06:00:42;;;;;;;4.55;2.45;;;21.50;90.30;;;;;;4973312;28;20143;-71
2022/08/14 06:03:10;;;;;;;4.60;2.65;;;21.60;90.30;;;;;;4976509;28;20069;-69
2022/08/14 06:05:36;;;;;;;4.32;3.00;;;21.70;90.20;;;;;;4973234;28;20138;-69
2022/08/14 06:08:02;;;;;;;4.93;2.83;;;21.80;90.00;;;;;;4976544;28;20042;-70
2022/08/14 06:10:30;;;;;;;4.47;2.85;;;22.00;89.90;;;;;;4974758;28;20509;-69
2022/08/14 06:12:57;;;;;;;5.90;2.83;;;22.10;89.50;;;;;;4974819;28;20059;-71
2022/08/14 06:15:23;;;;;;;7.20;2.78;;;22.20;89.30;;;;;;4975337;28;20031;-68
2022/08/14 06:17:53;;;;;;;7.43;2.80;;;22.20;89.30;;;;;;4974322;28;20043;-69
2022/08/14 06:20:19;;;;;;;4.13;2.57;;;22.40;88.60;;;;;;5007157;28;20084;-70
2022/08/14 06:22:46;;;;;;;3.75;2.38;;;22.50;88.80;;;;;;4973193;28;20294;-69
2022/08/14 06:25:14;;;;;;;6.60;2.85;;;22.60;88.20;;;;;;4981956;28;20030;-69
2022/08/14 06:27:44;;;;;;;6.63;2.20;;;22.80;87.90;;;;;;4979430;28;20045;-69
2022/08/14 06:30:16;;;;;;;9.25;3.30;;;23.00;88.00;;;;;;5000171;28;20039;-69
2022/08/14 06:32:42;;;;;;;4.20;2.42;;;23.10;88.00;;;;;;4979413;28;20174;-70
2022/08/14 06:35:09;;;;;;;7.85;3.13;;;23.30;87.00;;;;;;4980928;28;20380;-68
2022/08/14 06:37:51;;;;;;;6.28;2.90;;;23.70;86.40;;;;;;4976378;28;20031;-69
2022/08/14 06:40:25;;;;;;;6.40;2.70;;;24.20;84.70;;;;;;5000268;28;20038;-69
2022/08/14 06:42:51;;;;;;;6.90;2.90;;;24.80;83.40;;;;;;4985445;28;20042;-71
2022/08/14 06:45:17;;;;;;;4.70;2.55;;;25.40;82.10;;;;;;4979969;28;20042;-71
2022/08/14 06:47:44;;;;;;;5.80;3.03;;;26.10;80.90;;;;;;4978043;28;20037;-70
2022/08/14 06:50:14;;;;;;;3.78;2.75;;;26.70;78.30;;;;;;4979046;28;20054;-68
2022/08/14 06:52:40;;;;;;;3.00;2.10;;;27.20;77.80;;;;;;4982891;28;20120;-69
2022/08/14 06:55:08;;;;;;;5.03;2.60;;;27.90;76.80;;;;;;4984715;28;20038;-70
2022/08/14 06:57:39;;;;;;;13.80;2.50;;;28.40;76.10;;;;;;4975158;28;20039;-70
2022/08/14 07:00:10;;;;;;;3.15;2.38;;;29.20;74.80;;;;;;4979949;28;20030;-70
2022/08/14 07:08:10;;;;;;;9.82;3.33;;;30.40;71.80;;;;;;4980307;28;20395;-71
2022/08/14 07:10:36;;;;;;;4.00;2.70;;;30.60;70.90;;;;;;4998664;28;20943;-70
2022/08/14 07:13:01;;;;;;;4.80;3.05;;;30.80;71.10;;;;;;4980379;28;20035;-70
2022/08/14 07:15:27;;;;;;;4.63;2.95;;;31.30;71.10;;;;;;4977936;28;20046;-71
2022/08/14 07:17:53;;;;;;;6.22;3.50;;;31.80;69.90;;;;;;4977687;28;20041;-72
2022/08/14 07:20:19;;;;;;;7.10;3.03;;;32.10;68.80;;;;;;5008744;28;20938;-70
2022/08/14 07:22:46;;;;;;;3.80;3.40;;;32.30;68.00;;;;;;4976279;28;20088;-71
2022/08/14 07:25:13;;;;;;;4.65;2.83;;;32.20;66.90;;;;;;4985247;28;20057;-71
2022/08/14 07:27:39;;;;;;;4.75;2.83;;;31.60;67.80;;;;;;4983035;28;20049;-71
2022/08/14 07:30:05;;;;;;;15.48;2.38;;;30.80;68.90;;;;;;4984253;28;20081;-71
2022/08/14 07:32:31;;;;;;;5.32;2.50;;;30.20;70.30;;;;;;4984399;28;20039;-70
2022/08/14 07:34:57;;;;;;;4.03;2.70;;;29.40;71.80;;;;;;4987226;28;20050;-71
2022/08/14 07:37:23;;;;;;;5.65;2.00;;;28.80;72.60;;;;;;4984027;28;20169;-71
2022/08/14 07:39:48;;;;;;;4.25;2.72;;;28.40;74.20;;;;;;4985514;28;20092;-71
2022/08/14 07:42:14;;;;;;;3.53;1.90;;;28.00;75.10;;;;;;4987117;28;20125;-71
2022/08/14 07:44:39;;;;;;;3.72;2.05;;;27.80;76.60;;;;;;4985280;28;20041;-72
2022/08/14 07:47:05;;;;;;;7.43;3.08;;;27.60;76.80;;;;;;4987042;28;20714;-71
2022/08/14 07:49:32;;;;;;;4.13;2.35;;;27.40;78.00;;;;;;4982066;28;20058;-71
2022/08/14 07:52:00;;;;;;;3.33;2.40;;;27.40;77.20;;;;;;4980158;28;20455;-69
2022/08/14 07:54:25;;;;;;;4.80;2.35;;;27.30;76.60;;;;;;4973868;28;20811;-70
2022/08/14 07:56:51;;;;;;;5.30;2.60;;;27.30;76.70;;;;;;4975416;28;20116;-71
2022/08/14 07:59:17;;;;;;;4.25;2.65;;;27.10;77.30;;;;;;5010158;28;20038;-72
2022/08/14 08:01:43;;;;;;;3.70;2.30;;;26.90;77.40;;;;;;5010185;28;20034;-71
2022/08/14 08:04:10;;;;;;;3.55;2.33;;;26.90;77.20;;;;;;4972959;28;20081;-71
2022/08/14 08:06:37;;;;;;;6.50;2.67;;;26.90;78.00;;;;;;4972064;28;20043;-70
2022/08/14 08:09:03;;;;;;;6.93;2.00;;;26.80;77.70;;;;;;4972599;28;20039;-71
2022/08/14 08:11:34;;;;;;;4.45;2.25;;;26.90;77.00;;;;;;4977128;28;20034;-71
2022/08/14 08:14:05;;;;;;;4.47;2.33;;;26.90;77.00;;;;;;4975257;28;20035;-71
2022/08/14 08:16:32;;;;;;;4.60;2.25;;;26.90;77.70;;;;;;4979545;28;20066;-72
2022/08/14 08:18:58;;;;;;;4.13;2.33;;;26.90;77.40;;;;;;4974680;28;20037;-69
2022/08/14 08:21:25;;;;;;;5.35;2.22;;;27.00;77.20;;;;;;4977963;28;20276;-71
2022/08/14 08:23:51;;;;;;;4.80;2.38;;;27.00;77.30;;;;;;4974816;28;20046;-71
2022/08/14 08:26:17;;;;;;;3.92;2.10;;;27.00;77.30;;;;;;4984358;28;20030;-70
2022/08/14 08:28:43;;;;;;;2.90;2.25;;;27.10;77.20;;;;;;4979141;28;20073;-69
2022/08/14 08:31:10;;;;;;;5.22;2.22;;;27.20;77.30;;;;;;4985152;28;20058;-69
2022/08/14 08:33:37;;;;;;;2.95;2.00;;;27.30;77.20;;;;;;4973213;28;20034;-71
2022/08/14 08:36:06;;;;;;;2.65;1.92;;;27.30;77.00;;;;;;4978563;28;20041;-71
2022/08/14 08:38:32;;;;;;;3.47;2.22;;;27.40;77.00;;;;;;4976990;28;20030;-71
2022/08/14 08:40:59;;;;;;;3.83;2.20;;;27.50;76.70;;;;;;5007124;28;20113;-70
2022/08/14 08:43:30;;;;;;;6.45;2.30;;;27.50;76.50;;;;;;4979541;28;20039;-71
2022/08/14 08:46:14;;;;;;;2.58;2.03;;;27.60;76.30;;;;;;4977840;28;20045;-68
2022/08/14 08:48:47;;;;;;;3.85;2.13;;;27.70;75.80;;;;;;4977716;28;20390;-70
2022/08/14 08:51:21;;;;;;;4.38;2.00;;;27.70;76.00;;;;;;4980826;28;20113;-69
2022/08/14 08:53:59;;;;;;;6.07;2.97;;;27.70;76.10;;;;;;4976721;28;20108;-69
2022/08/14 08:56:48;;;;;;;2.80;1.88;;;27.80;75.40;;;;;;4974762;28;20045;-69
2022/08/14 08:59:20;;;;;;;6.03;1.92;;;27.90;76.70;;;;;;4976043;28;20173;-69
2022/08/14 09:01:54;;;;;;;5.22;1.80;;;27.90;75.60;;;;;;4974325;28;20034;-71
2022/08/14 09:04:19;;;;;;;7.70;2.42;;;28.00;75.40;;;;;;4973557;28;20034;-72
2022/08/14 09:06:51;;;;;;;3.75;2.33;;;28.10;75.00;;;;;;4975219;28;20054;-70
2022/08/14 09:09:21;;;;;;;3.45;2.10;;;28.20;75.20;;;;;;4975093;28;20037;-72
2022/08/14 09:11:47;;;;;;;4.18;2.17;;;28.20;75.00;;;;;;4976322;28;20035;-70
2022/08/14 09:14:13;;;;;;;2.30;1.90;;;28.30;74.70;;;;;;4975903;28;20487;-70
2022/08/14 09:16:40;;;;;;;3.22;2.05;;;28.40;75.10;;;;;;4974901;28;20082;-71
2022/08/14 09:19:06;;;;;;;4.90;2.25;;;28.50;73.90;;;;;;4976250;28;20031;-71
2022/08/14 09:21:33;;;;;;;4.63;2.30;;;28.60;75.20;;;;;;4973909;28;20112;-71
2022/08/14 09:24:00;;;;;;;3.70;2.00;;;28.70;73.60;;;;;;4976613;28;20033;-72
2022/08/14 09:26:25;;;;;;;3.05;2.03;;;28.80;72.50;;;;;;4980285;28;20030;-72
2022/08/14 09:28:51;;;;;;;3.03;1.85;;;28.90;73.70;;;;;;4978855;28;20162;-71
2022/08/14 09:31:19;;;;;;;5.90;2.03;;;28.90;72.60;;;;;;5008984;28;20105;-71
2022/08/14 09:33:51;;;;;;;3.55;2.10;;;29.10;71.10;;;;;;5006142;28;20446;-71
2022/08/14 09:37:10;;;;;;;4.78;1.67;;;29.20;70.80;;;;;;4975962;28;20035;-74
2022/08/14 09:39:42;;;;;;;2.47;1.75;;;29.30;69.20;;;;;;4986389;28;20418;-70
2022/08/14 09:42:32;;;;;;;2.53;1.58;;;29.30;70.40;;;;;;4995133;28;20142;-70
2022/08/14 09:45:19;;;;;;;6.15;1.58;;;29.30;70.00;;;;;;4982711;28;20038;-70
2022/08/14 09:47:47;;;;;;;5.63;1.50;;;29.50;69.40;;;;;;4998571;28;20030;-70
2022/08/14 09:50:26;;;;;;;3.08;1.65;;;29.50;70.50;;;;;;4976008;28;20066;-71
2022/08/14 09:53:01;;;;;;;5.10;2.00;;;29.70;70.50;;;;;;4973015;28;20043;-70
2022/08/14 09:55:33;;;;;;;3.63;1.95;;;29.70;69.90;;;;;;5005120;28;20093;-70
2022/08/14 09:58:12;;;;;;;3.20;1.95;;;29.80;71.40;;;;;;4977287;28;20102;-70
2022/08/14 10:00:46;;;;;;;4.50;1.95;;;29.90;71.30;;;;;;4977811;28;20062;-70
2022/08/14 10:03:23;;;;;;;3.97;1.95;;;30.00;70.60;;;;;;4976891;28;20415;-72
2022/08/14 10:05:49;;;;;;;7.28;2.78;;;30.00;71.30;;;;;;4977977;28;20038;-72
2022/08/14 10:08:19;;;;;;;7.78;2.42;;;30.10;70.80;;;;;;4976378;28;20540;-71
2022/08/14 10:10:46;;;;;;;2.85;2.22;;;30.20;70.80;;;;;;4978379;28;20034;-70
2022/08/14 10:13:23;;;;;;;3.58;1.88;;;30.30;70.00;;;;;;4986802;28;20034;-69
2022/08/14 10:15:50;;;;;;;6.28;1.90;;;30.30;71.30;;;;;;4982927;28;20037;-71
2022/08/14 10:18:18;;;;;;;4.63;2.00;;;30.40;70.40;;;;;;4978986;28;20045;-70
2022/08/14 10:20:54;;;;;;;3.35;2.10;;;30.50;70.90;;;;;;4979321;28;20122;-70
2022/08/14 10:23:22;;;;;;;4.88;2.05;;;30.60;69.30;;;;;;5008230;28;20097;-72
2022/08/14 10:25:50;;;;;;;2.63;1.70;;;30.60;70.30;;;;;;4985240;28;20042;-69
2022/08/14 10:28:18;;;;;;;3.65;1.88;;;30.80;67.10;;;;;;4982303;28;20034;-71
2022/08/14 10:30:52;;;;;;;4.90;1.40;;;30.70;67.10;;;;;;4981184;28;20042;-70
2022/08/14 10:33:29;;;;;;;2.58;1.80;;;30.80;67.50;;;;;;4982272;28;20141;-70
2022/08/14 10:35:57;;;;;;;8.25;2.38;;;30.80;65.50;;;;;;4993276;28;20065;-71
2022/08/14 10:38:31;;;;;;;1.98;1.35;;;30.90;65.90;;;;;;4986306;28;20035;-71
2022/08/14 10:41:12;;;;;;;4.20;1.30;;;31.00;64.10;;;;;;4982525;28;20042;-70
2022/08/14 10:43:40;;;;;;;2.90;1.08;;;31.10;64.50;;;;;;4983256;28;20405;-70
2022/08/14 10:46:15;;;;;;;1.80;1.35;;;31.00;64.80;;;;;;4978516;28;20049;-71
2022/08/14 10:48:54;;;;;;;1.42;1.17;;;31.00;63.80;;;;;;4975046;28;20030;-71
2022/08/14 10:51:27;;;;;;;1.90;1.30;;;31.10;65.10;;;;;;4990841;28;20030;-71
2022/08/14 10:54:00;;;;;;;1.90;1.13;;;31.20;62.20;;;;;;4985507;28;20046;-71
2022/08/14 10:56:32;;;;;;;1.25;0.95;;;31.20;61.80;;;;;;4978837;28;20058;-70
2022/08/14 10:59:03;;;;;;;1.10;1.00;;;31.30;61.40;;;;;;4983304;28;20089;-69
2022/08/14 11:01:38;;;;;;;1.65;1.25;;;31.30;62.50;;;;;;4983757;28;20035;-73
2022/08/14 11:04:04;;;;;;;2.30;1.02;;;31.20;60.80;;;;;;4984782;28;20035;-70
2022/08/14 11:06:31;;;;;;;2.05;1.48;;;31.30;61.80;;;;;;4986883;28;20033;-68
2022/08/14 11:08:57;;;;;;;1.83;1.13;;;31.30;62.10;;;;;;4986415;28;20403;-72
2022/08/14 11:11:26;;;;;;;2.05;1.30;;;31.30;61.80;;;;;;4984313;28;20022;-71
2022/08/14 11:13:56;;;;;;;5.67;1.63;;;31.40;62.30;;;;;;4984955;28;20034;-75
2022/08/14 11:16:23;;;;;;;4.15;1.45;;;31.40;64.00;;;;;;4984430;28;20022;-71
2022/08/14 11:18:49;;;;;;;4.57;1.50;;;31.40;63.10;;;;;;4984398;28;20069;-71
2022/08/14 11:21:20;;;;;;;4.95;1.52;;;31.40;60.60;;;;;;4974772;28;20038;-69
2022/08/14 11:23:48;;;;;;;3.42;1.33;;;31.40;61.50;;;;;;4974840;28;20598;-70
2022/08/14 11:26:17;;;;;;;2.13;1.20;;;31.40;62.00;;;;;;4980533;28;20050;-69
2022/08/14 11:28:45;;;;;;;;;;;31.40;63.00;;;;;;4982045;28;20038;-71
2022/08/14 11:31:12;;;;;;;2.83;1.40;;;31.40;62.00;;;;;;4977610;28;19913;-71
2022/08/14 11:33:40;;;;;;;1.85;1.00;;;31.30;62.80;;;;;;4974577;28;20097;-70
2022/08/14 11:36:08;;;;;;;2.55;1.10;;;31.30;63.50;;;;;;4978011;28;20026;-69
2022/08/14 11:38:40;;;;;;;1.88;1.27;;;31.40;62.30;;;;;;4973851;28;20138;-70
2022/08/14 11:41:07;;;;;;;2.05;1.30;;;31.40;61.70;;;;;;4976254;28;20137;-68
2022/08/14 11:43:44;;;;;;;3.90;1.63;;;31.40;62.80;;;;;;4978097;28;20046;-71
2022/08/14 11:46:11;;;;;;;2.53;1.83;;;31.40;62.90;;;;;;4976707;28;20066;-70
2022/08/14 11:48:52;;;;;;;1.83;1.50;;;31.40;63.80;;;;;;4973418;28;20042;-70
2022/08/14 11:51:22;;;;;;;2.28;1.40;;;31.30;62.40;;;;;;4978840;28;20035;-71
2022/08/14 11:53:56;;;;;;;2.05;1.35;;;31.20;61.60;;;;;;4977076;28;20524;-71
2022/08/14 11:56:22;;;;;;;1.73;1.25;;;31.20;62.00;;;;;;4980607;28;20478;-69
2022/08/14 11:58:54;;;;;;;7.28;1.40;;;31.10;61.00;;;;;;4977684;28;20778;-71
2022/08/14 12:01:27;;;;;;;1.45;1.23;;;31.10;61.30;;;;;;4976353;28;20057;-71
2022/08/14 12:03:57;;;;;;;1.50;0.88;;;31.10;62.00;;;;;;4977524;28;20046;-71
2022/08/14 12:06:22;;;;;;;1.33;1.00;;;31.10;60.50;;;;;;4974579;28;20039;-71
2022/08/14 12:08:52;;;;;;;2.05;1.38;;;31.10;61.50;;;;;;4979467;28;20099;-70
2022/08/14 12:11:18;;;;;;;1.88;1.15;;;31.10;62.00;;;;;;4983732;28;20030;-70
2022/08/14 12:13:44;;;;;;;2.92;1.38;;;31.10;61.30;;;;;;4973365;28;20516;-75
2022/08/14 12:16:12;;;;;;;3.10;1.17;;;31.00;62.00;;;;;;4984286;28;20355;-72
2022/08/14 12:18:40;;;;;;;5.45;1.52;;;30.90;61.60;;;;;;4974731;28;20069;-69
2022/08/14 12:21:13;;;;;;;2.67;1.20;;;30.90;62.20;;;;;;4976150;28;20177;-71
2022/08/14 12:23:40;;;;;;;2.50;1.45;;;30.90;61.10;;;;;;5004404;28;20046;-71
2022/08/14 12:26:09;;;;;;;1.55;1.20;;;31.00;58.90;;;;;;4979380;28;20039;-70
2022/08/14 12:28:35;;;;;;;6.03;1.20;;;30.90;59.50;;;;;;4976319;28;20168;-71
2022/08/14 12:31:16;;;;;;;1.60;0.98;;;30.90;60.20;;;;;;4974987;28;20046;-70
2022/08/14 12:33:43;;;;;;;3.35;1.08;;;30.90;59.80;;;;;;4974141;28;20411;-71
2022/08/14 12:36:19;;;;;;;3.30;1.38;;;31.00;61.00;;;;;;4984546;28;20052;-70
2022/08/14 12:38:45;;;;;;;1.65;1.15;;;31.00;61.20;;;;;;4974099;28;20084;-69
2022/08/14 12:41:16;;;;;;;3.38;1.15;;;31.10;60.50;;;;;;4976455;28;20042;-71
2022/08/14 12:43:50;;;;;;;1.70;1.20;;;31.10;58.70;;;;;;4983561;28;20061;-71
2022/08/14 12:46:39;;;;;;;2.33;1.05;;;31.10;60.00;;;;;;5005121;28;20426;-69
2022/08/14 12:49:10;;;;;;;1.80;1.23;;;31.00;60.10;;;;;;4977841;28;20034;-71
2022/08/14 12:51:36;;;;;;;1.42;1.17;;;30.90;60.50;;;;;;4974340;28;20059;-69
2022/08/14 12:54:13;;;;;;;10.07;1.98;;;30.90;60.20;;;;;;4979072;28;20022;-70
2022/08/14 12:56:39;;;;;;;1.27;0.88;;;30.90;60.80;;;;;;4975735;28;20043;-71
2022/08/14 12:59:06;;;;;;;1.25;0.90;;;30.90;58.10;;;;;;4974795;28;20034;-71
2022/08/14 13:01:33;;;;;;;1.23;0.98;;;31.00;57.20;;;;;;4974738;28;20034;-67
2022/08/14 13:04:07;;;;;;;2.35;1.25;;;31.00;58.50;;;;;;4973285;28;20034;-71
2022/08/14 13:06:37;;;;;;;2.28;1.38;;;31.00;58.80;;;;;;4975078;28;20453;-71
2022/08/14 13:09:04;;;;;;;3.78;1.13;;;31.10;58.50;;;;;;4974906;28;20064;-69
2022/08/14 13:11:39;;;;;;;3.63;1.25;;;31.00;59.30;;;;;;4973121;28;20035;-71
2022/08/14 13:14:05;;;;;;;2.78;1.10;;;30.90;58.80;;;;;;4984007;28;20057;-72